Auburn, Washington
Current Conditions -  °F | °C
As of 11:53 PM on Sunday 21 Dec 2014 (Local Time) from KSEA Reporting Station
Broken Clouds Broken Clouds  
Wind Chill: 10°   Ceiling: 9500
Heat Index: 10°   Visibility: 10mi
Dew Point:   Wind: 7mph
Humidity: 86%   Direction: 200°SSW
Pressure: 30.11"   Gusts: NA
Location:  47.31°N, 122.23°W
Report Text: KSEA 220753Z 20006KT 10SM SCT013 BKN095 10/08 A3011 RMK AO2 SLP204 T01000078 401280100
Loading
Personal Weather Stations






























Interactive Weather Map New forecast layout! Learn more

10-Day Weather Forecast

Advertisements
Track Severe Weather on mobile